createdAt,value
2023-02-13T06:19:01.081Z,5.98
2023-02-13T06:29:01.197Z,6.04
2023-02-13T06:39:01.257Z,5.95
2023-02-13T06:49:01.154Z,5.94
2023-02-13T06:59:01.195Z,5.92
2023-02-13T07:09:01.178Z,5.99
2023-02-13T07:19:01.210Z,6.03
2023-02-13T07:29:10.824Z,6.02
2023-02-13T07:39:01.360Z,6.03
2023-02-13T07:49:01.062Z,6.11
2023-02-13T07:59:01.384Z,6.13
2023-02-13T08:09:01.269Z,6.18
2023-02-13T08:19:01.192Z,6.28
2023-02-13T08:29:01.286Z,6.34
2023-02-13T08:39:01.311Z,6.37
2023-02-13T08:49:01.186Z,6.42
2023-02-13T08:59:01.392Z,6.51
2023-02-13T09:09:01.222Z,6.63
2023-02-13T09:19:01.188Z,6.74
2023-02-13T09:29:01.115Z,6.77
2023-02-13T09:39:01.204Z,6.91
2023-02-13T09:49:01.375Z,6.94
2023-02-13T09:59:01.223Z,6.97
2023-02-13T10:09:01.298Z,6.94
2023-02-13T10:19:01.319Z,7.01
2023-02-13T10:29:01.222Z,7.18
2023-02-13T10:39:01.404Z,7.18
2023-02-13T10:49:01.362Z,7.21
2023-02-13T10:59:01.288Z,7.28
2023-02-13T11:09:01.222Z,7.32
2023-02-13T11:19:01.236Z,7.63
2023-02-13T11:29:01.194Z,7.53
2023-02-13T11:39:01.163Z,7.62
2023-02-13T11:49:01.004Z,7.68
2023-02-13T11:59:01.171Z,7.78
2023-02-13T12:09:01.375Z,7.95
2023-02-13T12:19:01.339Z,7.84
2023-02-13T12:29:01.207Z,7.89
2023-02-13T12:39:01.253Z,7.76
2023-02-13T12:49:01.099Z,7.71
2023-02-13T12:59:01.283Z,7.74
2023-02-13T13:09:01.355Z,7.82
2023-02-13T13:19:01.206Z,7.86
2023-02-13T13:29:01.387Z,7.92
2023-02-13T13:39:01.854Z,7.85
2023-02-13T13:49:01.610Z,7.77
2023-02-13T13:59:01.341Z,7.73
2023-02-13T14:09:01.548Z,7.85
2023-02-13T14:19:01.390Z,7.63
2023-02-13T14:29:01.215Z,7.70
2023-02-13T14:39:01.629Z,7.69
2023-02-13T14:49:01.288Z,7.60
2023-02-13T14:59:01.556Z,7.64
2023-02-13T15:09:01.361Z,7.63
2023-02-13T15:19:01.479Z,7.48
2023-02-13T15:29:01.578Z,7.23
2023-02-13T15:39:01.324Z,7.13
2023-02-13T15:49:01.389Z,7.00
2023-02-13T15:59:01.637Z,6.94
2023-02-13T16:09:01.318Z,6.88
2023-02-13T16:19:01.359Z,6.82
2023-02-13T16:29:01.329Z,6.76
2023-02-13T16:39:01.587Z,6.71
2023-02-13T16:49:01.501Z,6.63
2023-02-13T16:59:01.410Z,6.58
2023-02-13T17:09:01.791Z,6.54
2023-02-13T17:19:01.557Z,6.44
2023-02-13T17:29:01.495Z,6.34
2023-02-13T17:39:01.370Z,6.26
2023-02-13T17:49:01.543Z,6.22
2023-02-13T17:59:01.492Z,6.04
2023-02-13T18:09:01.558Z,5.99
2023-02-13T18:19:01.656Z,5.90
2023-02-13T18:29:01.685Z,5.82
2023-02-13T18:39:01.450Z,5.76
2023-02-13T18:49:01.630Z,5.59
2023-02-13T18:59:01.687Z,5.35
2023-02-13T19:09:01.729Z,4.93
2023-02-13T19:19:01.895Z,4.88
